(°F)
52°
52°
52°
54°
56°
58°
61°
(°F)
48°
48°
49°
50°
52°
53°
57°
SSW
S
SE
SE
S
SSW
SW
(mph)
3-6
2-5
2-5
2-7
2-6
3-7
5-9
(in)
0
0
0
0
0
0
0
(%)
0
0
0
0
0
0
0

Sun elevation

/ -12°
sun-icon
UV 10
06:46
18:59
Waxing crescent moon (8°)
07:12
19:37

METAR for Walvis Bay Airport (FYWB)

Time Conditions Temperature/
Dewpoint
Wind Visibility Weather Clouds Pressure Change Raw
VFR 51.8°F / 50°F 60º 3kt >10km - Clouds and Visibility OK 1016 - FYWB 260300Z 06003KT CAVOK 11/10 Q1016
51.8°F / 50°F 210º 3kt - 1016 - FYWB 260200Z AUTO 21003KT //// // ////// 11/10 Q1016
51.8°F / 50°F 230º 3kt - 1016 - FYWB 260100Z AUTO 23003KT //// // ////// 11/10 Q1016
53.6°F / 50°F 300º 2kt - 1017 - FYWB 260000Z AUTO 30002KT //// // ////// 12/10 Q1017
53.6°F / 50°F 300º 3kt - 1017 - FYWB 252300Z AUTO 30003KT //// // ////// 12/10 Q1017
53.6°F / 50°F 250º 2kt - 1017 - FYWB 252200Z AUTO 25002KT //// // ////// 12/10 Q1017
53.6°F / 50°F 340º 5kt - 1018 - FYWB 252100Z AUTO 34005KT //// // ////// 12/10 Q1018
53.6°F / 48.2°F 340º 4kt - 1018 - FYWB 252000Z AUTO 34004KT //// // ////// 12/09 Q1018
53.6°F / 50°F 270º 4kt - 1017 - FYWB 251900Z AUTO 27004KT //// // ////// 12/10 Q1017
57.2°F / 50°F 260º 7kt - 1016 - FYWB 251800Z AUTO 26007KT //// // ////// 14/10 Q1016
57.2°F / 50°F 240º 9kt - 1015 - FYWB 251700Z AUTO 24009KT //// // ////// 14/10 Q1015
59°F / 50°F 240º 8kt - 1014 - FYWB 251600Z AUTO 24008KT //// // ////// 15/10 Q1014
60.8°F / 51.8°F 250º 9kt - 1014 - FYWB 251400Z 25009KT //// ////// 16/11 Q1014
MVFR 59°F / 51.8°F 320º 5kt >10km - Overcast 1600ft 1015 - FYWB 251300Z 32005KT 9999 OVC016 15/11 Q1015
57.2°F / 51.8°F 330º 4kt - 1014 - FYWB 251200Z AUTO 33004KT //// // ////// 14/11 Q1014
VFR 59°F / 50°F 310º 7kt >10km - Few Clouds 2000ft 1016 - FYWB 250900Z 31007KT 9999 FEW020 15/10 Q1016
MVFR 59°F / 50°F 350º 6kt >10km - Broken Clouds 1800ft 1016 - FYWB 250800Z 35006KT 9999 BKN018 15/10 Q1016
MVFR 55.4°F / 50°F 10º 6kt >10km - Overcast 1300ft 1016 - FYWB 250700Z 01006KT 9999 OVC013 13/10 Q1016
IFR 53.6°F / 50°F 50º 8kt >10km - Overcast 900ft 1013 - FYWB 250500Z 05008KT 9999 OVC009 12/10 Q1013
IFR 53.6°F / 50°F 20º 8kt >10km - Overcast 900ft 1014 - FYWB 250400Z 02008KT 9999 OVC009 12/10 Q1014
IFR 53.6°F / 50°F 30º 9kt >10km - Overcast 700ft 1013 - FYWB 250300Z 03009KT 9999 OVC007 12/10 Q1013
51.8°F / 50°F 40º 10kt - 1013 - FYWB 250200Z AUTO 04010KT //// // ////// 11/10 Q1013
51.8°F / 50°F 40º 6kt - 1014 - FYWB 250100Z AUTO 04006KT //// // ////// 11/10 Q1014
53.6°F / 50°F 290º 2kt - 1015 - FYWB 250000Z AUTO 29002KT //// // ////// 12/10 Q1015

VFR

51.8°F / 50°F

[More]
Wind 60º 3kt
Visibility >10km
Weather -
Clouds Clouds and Visibility OK
Pressure 1016
Change -
Raw FYWB 260300Z 06003KT CAVOK 11/10 Q1016

51.8°F / 50°F

[More]
Wind 210º 3kt
Visibility
Weather -
Clouds
Pressure 1016
Change -
Raw FYWB 260200Z AUTO 21003KT //// // ////// 11/10 Q1016

51.8°F / 50°F

[More]
Wind 230º 3kt
Visibility
Weather -
Clouds
Pressure 1016
Change -
Raw FYWB 260100Z AUTO 23003KT //// // ////// 11/10 Q1016

53.6°F / 50°F

[More]
Wind 300º 2kt
Visibility
Weather -
Clouds
Pressure 1017
Change -
Raw FYWB 260000Z AUTO 30002KT //// // ////// 12/10 Q1017

53.6°F / 50°F

[More]
Wind 300º 3kt
Visibility
Weather -
Clouds
Pressure 1017
Change -
Raw FYWB 252300Z AUTO 30003KT //// // ////// 12/10 Q1017

53.6°F / 50°F

[More]
Wind 250º 2kt
Visibility
Weather -
Clouds
Pressure 1017
Change -
Raw FYWB 252200Z AUTO 25002KT //// // ////// 12/10 Q1017

53.6°F / 50°F

[More]
Wind 340º 5kt
Visibility
Weather -
Clouds
Pressure 1018
Change -
Raw FYWB 252100Z AUTO 34005KT //// // ////// 12/10 Q1018

53.6°F / 48.2°F

[More]
Wind 340º 4kt
Visibility
Weather -
Clouds
Pressure 1018
Change -
Raw FYWB 252000Z AUTO 34004KT //// // ////// 12/09 Q1018

53.6°F / 50°F

[More]
Wind 270º 4kt
Visibility
Weather -
Clouds
Pressure 1017
Change -
Raw FYWB 251900Z AUTO 27004KT //// // ////// 12/10 Q1017

57.2°F / 50°F

[More]
Wind 260º 7kt
Visibility
Weather -
Clouds
Pressure 1016
Change -
Raw FYWB 251800Z AUTO 26007KT //// // ////// 14/10 Q1016

57.2°F / 50°F

[More]
Wind 240º 9kt
Visibility
Weather -
Clouds
Pressure 1015
Change -
Raw FYWB 251700Z AUTO 24009KT //// // ////// 14/10 Q1015

59°F / 50°F

[More]
Wind 240º 8kt
Visibility
Weather -
Clouds
Pressure 1014
Change -
Raw FYWB 251600Z AUTO 24008KT //// // ////// 15/10 Q1014

60.8°F / 51.8°F

[More]
Wind 250º 9kt
Visibility
Weather -
Clouds
Pressure 1014
Change -
Raw FYWB 251400Z 25009KT //// ////// 16/11 Q1014

MVFR

59°F / 51.8°F

[More]
Wind 320º 5kt
Visibility >10km
Weather -
Clouds Overcast 1600ft
Pressure 1015
Change -
Raw FYWB 251300Z 32005KT 9999 OVC016 15/11 Q1015

57.2°F / 51.8°F

[More]
Wind 330º 4kt
Visibility
Weather -
Clouds
Pressure 1014
Change -
Raw FYWB 251200Z AUTO 33004KT //// // ////// 14/11 Q1014

VFR

59°F / 50°F

[More]
Wind 310º 7kt
Visibility >10km
Weather -
Clouds Few Clouds 2000ft
Pressure 1016
Change -
Raw FYWB 250900Z 31007KT 9999 FEW020 15/10 Q1016

MVFR

59°F / 50°F

[More]
Wind 350º 6kt
Visibility >10km
Weather -
Clouds Broken Clouds 1800ft
Pressure 1016
Change -
Raw FYWB 250800Z 35006KT 9999 BKN018 15/10 Q1016

MVFR

55.4°F / 50°F

[More]
Wind 10º 6kt
Visibility >10km
Weather -
Clouds Overcast 1300ft
Pressure 1016
Change -
Raw FYWB 250700Z 01006KT 9999 OVC013 13/10 Q1016

IFR

53.6°F / 50°F

[More]
Wind 50º 8kt
Visibility >10km
Weather -
Clouds Overcast 900ft
Pressure 1013
Change -
Raw FYWB 250500Z 05008KT 9999 OVC009 12/10 Q1013

IFR

53.6°F / 50°F

[More]
Wind 20º 8kt
Visibility >10km
Weather -
Clouds Overcast 900ft
Pressure 1014
Change -
Raw FYWB 250400Z 02008KT 9999 OVC009 12/10 Q1014

IFR

53.6°F / 50°F

[More]
Wind 30º 9kt
Visibility >10km
Weather -
Clouds Overcast 700ft
Pressure 1013
Change -
Raw FYWB 250300Z 03009KT 9999 OVC007 12/10 Q1013

51.8°F / 50°F

[More]
Wind 40º 10kt
Visibility
Weather -
Clouds
Pressure 1013
Change -
Raw FYWB 250200Z AUTO 04010KT //// // ////// 11/10 Q1013

51.8°F / 50°F

[More]
Wind 40º 6kt
Visibility
Weather -
Clouds
Pressure 1014
Change -
Raw FYWB 250100Z AUTO 04006KT //// // ////// 11/10 Q1014

53.6°F / 50°F

[More]
Wind 290º 2kt
Visibility
Weather -
Clouds
Pressure 1015
Change -
Raw FYWB 250000Z AUTO 29002KT //// // ////// 12/10 Q1015

TAF for Walvis Bay Airport (FYWB)

From till


From till Wind 50º 5kt. Visibility 692.016m. Fog . Overcast 700ft.
Becoming from till Wind 50º 5kt. Visibility 10km or more. Fog . Broken Clouds 1500ft.

Raw: TAF FYWB 252200Z 2600/2700 05005KT 0700 FG OVC007 BECMG 2607/2609 9999 BKN015

Radar and precipitation nowcast for Walvis Bay Airport

Drizzle
Light
Moderate
Heavy
Very Heavy
Hail

The location marker is placed on Walvis Bay Airport. This animation shows the precipitation radar for the last hour, as well as a 1h forecast. Drizzle or light snow fall might be invisible for the radar. Precipitation intensity is colour coded, ranging from light blue to orange.

Current satellite and rain images for Walvis Bay Airport, Namibia

The location marker is placed on Walvis Bay Airport. [More]

The real-time satellite image combines visible light during daytime with infrared radiation during nighttime. At night, the image is not dark as infrared radiation can detect temperature differences. Unfortunately, low clouds and fog are difficult to distinguish from ground temperatures and thus can be almost invisible during the night. Meteosat satellite images for Europe are updated in real-time every 5 minutes. GOES-16/GOES-17 (North & South America) and Himawari (Asia) images update every 10 minutes.

Precipitation is estimated from radar and satellites. Precipitation estimates from satellites are less accurate at night than during daytime. Orange crosses mark places where lightning was detected (over Europe).

Copyright 2022 EUMETSAT / meteoblue. Lightning data provided by nowcast.

Back to top